Boaz, Alabama
Current Conditions -  °F | °C
As of 7:15 PM on Thursday 27 Nov 2014 (Local Time) from K8A0 Reporting Station
Broken Clouds Broken Clouds  
Wind Chill: 30°   Ceiling: 3300
Heat Index: 36°   Visibility: 10mi
Dew Point: 32°   Wind: 7mph
Humidity: 87%   Direction: 310°NW
Pressure: 30.39"   Gusts: NA
Location:  34.2°N, 86.16°W
Report Text: K8A0 280115Z AUTO 31006KT 10SM BKN033 02/00 A3039 RMK AO2
Loading
Personal Weather Stations






























Interactive Weather Map New forecast layout! Learn more

10-Day Weather Forecast

Advertisements
Track Severe Weather on mobile